createdAt,value
2023-03-11T00:01:11.248Z,1.11
2023-03-11T00:03:38.838Z,1.12
2023-03-11T00:06:07.423Z,1.10
2023-03-11T00:08:35.122Z,1.11
2023-03-11T00:11:02.715Z,1.10
2023-03-11T00:13:31.004Z,1.02
2023-03-11T00:16:02.025Z,1.07
2023-03-11T00:18:31.427Z,1.16
2023-03-11T00:21:00.443Z,1.19
2023-03-11T00:23:28.476Z,1.28
2023-03-11T00:25:56.196Z,1.39
2023-03-11T00:28:26.004Z,1.44
2023-03-11T00:30:53.713Z,1.30
2023-03-11T00:33:22.616Z,1.39
2023-03-11T00:35:51.322Z,1.46
2023-03-11T00:38:19.526Z,1.47
2023-03-11T00:40:48.968Z,1.46
2023-03-11T00:43:17.493Z,1.37
2023-03-11T00:45:45.733Z,1.53
2023-03-11T00:48:14.703Z,1.38
2023-03-11T00:50:44.749Z,1.46
2023-03-11T00:53:13.533Z,1.34
2023-03-11T00:55:44.540Z,1.36
2023-03-11T00:58:13.382Z,1.37
2023-03-11T01:00:44.224Z,1.36
2023-03-11T01:03:12.385Z,1.51
2023-03-11T01:05:40.076Z,1.42
2023-03-11T01:08:09.459Z,1.46
2023-03-11T01:10:38.004Z,1.43
2023-03-11T01:13:06.146Z,1.41
2023-03-11T01:15:36.075Z,1.44
2023-03-11T01:18:04.731Z,1.38
2023-03-11T01:20:32.611Z,1.31
2023-03-11T01:23:00.738Z,1.25
2023-03-11T01:25:30.236Z,1.21
2023-03-11T01:27:58.001Z,1.24
2023-03-11T01:30:29.937Z,1.28
2023-03-11T01:32:59.298Z,1.27
2023-03-11T01:35:31.634Z,1.17
2023-03-11T01:37:59.458Z,1.25
2023-03-11T01:40:30.876Z,1.29
2023-03-11T01:42:58.748Z,1.33
2023-03-11T01:45:35.054Z,1.36
2023-03-11T01:48:02.947Z,1.40
2023-03-11T01:50:35.156Z,1.37
2023-03-11T01:53:03.618Z,1.33
2023-03-11T01:55:33.248Z,1.36
2023-03-11T01:58:01.294Z,1.34
2023-03-11T02:00:31.609Z,1.36
2023-03-11T02:03:02.132Z,1.46
2023-03-11T02:05:31.804Z,1.32
2023-03-11T02:07:59.418Z,1.27
2023-03-11T02:10:27.448Z,1.35
2023-03-11T02:12:56.654Z,1.35
2023-03-11T02:15:25.381Z,1.25
2023-03-11T02:17:53.639Z,1.35
2023-03-11T02:20:31.699Z,1.30
2023-03-11T02:23:02.477Z,1.38
2023-03-11T02:25:35.520Z,1.35
2023-03-11T02:28:06.873Z,1.35
2023-03-11T02:30:37.465Z,1.23
2023-03-11T02:33:05.246Z,1.26
2023-03-11T02:35:32.997Z,1.23
2023-03-11T02:38:00.583Z,1.31
2023-03-11T02:40:58.888Z,1.18
2023-03-11T02:43:34.285Z,1.14
2023-03-11T02:46:02.703Z,1.01
2023-03-11T02:48:30.743Z,1.19
2023-03-11T02:50:58.713Z,1.20
2023-03-11T02:53:27.863Z,1.16
2023-03-11T02:55:55.489Z,1.20
2023-03-11T02:58:23.152Z,1.21
2023-03-11T03:00:52.509Z,1.16
2023-03-11T03:03:20.061Z,1.05
2023-03-11T03:05:47.662Z,1.14
2023-03-11T03:08:15.292Z,1.17
2023-03-11T03:10:42.835Z,1.11
2023-03-11T03:13:10.422Z,1.19
2023-03-11T03:15:38.056Z,1.20
2023-03-11T03:18:07.134Z,1.15
2023-03-11T03:20:34.763Z,1.09
2023-03-11T03:23:02.551Z,1.02
2023-03-11T03:25:30.200Z,0.99
2023-03-11T03:27:57.746Z,1.00
2023-03-11T03:30:25.321Z,1.00
2023-03-11T03:32:53.005Z,1.03
2023-03-11T03:35:22.120Z,1.07
2023-03-11T03:37:49.644Z,1.03
2023-03-11T03:40:17.765Z,1.08
2023-03-11T03:42:48.490Z,1.03
2023-03-11T03:45:19.561Z,1.00
2023-03-11T03:47:48.511Z,0.93
2023-03-11T03:50:16.755Z,0.97
2023-03-11T03:52:45.742Z,1.00
2023-03-11T03:55:13.348Z,0.97
2023-03-11T03:57:41.313Z,0.84
2023-03-11T04:00:10.249Z,0.82
2023-03-11T04:02:37.901Z,0.87
2023-03-11T04:05:06.349Z,0.73
2023-03-11T04:07:34.866Z,0.68
2023-03-11T04:10:04.847Z,0.74
2023-03-11T04:12:32.470Z,0.71
2023-03-11T04:15:00.039Z,0.69
2023-03-11T04:17:27.605Z,0.66
2023-03-11T04:19:55.125Z,0.69
2023-03-11T04:22:22.717Z,0.70
2023-03-11T04:24:50.364Z,0.61
2023-03-11T04:27:19.265Z,0.68
2023-03-11T04:29:46.858Z,0.67
2023-03-11T04:32:14.471Z,0.70
2023-03-11T04:34:42.047Z,0.66
2023-03-11T04:37:09.715Z,0.78
2023-03-11T04:39:37.500Z,0.61
2023-03-11T04:42:05.358Z,0.62
2023-03-11T04:44:35.852Z,0.48
2023-03-11T04:47:03.458Z,0.44
2023-03-11T04:49:31.009Z,0.27
2023-03-11T04:51:58.589Z,0.26
2023-03-11T04:54:26.139Z,0.28
2023-03-11T04:56:53.729Z,0.19
2023-03-11T04:59:21.375Z,0.24
2023-03-11T05:01:50.344Z,0.20
2023-03-11T05:04:18.012Z,0.25
2023-03-11T05:06:45.579Z,0.32
2023-03-11T05:09:13.087Z,0.25
2023-03-11T05:11:40.690Z,0.33
2023-03-11T05:14:08.275Z,0.33
2023-03-11T05:16:35.857Z,0.48
2023-03-11T05:19:25.757Z,0.48
2023-03-11T05:21:53.365Z,0.52
2023-03-11T05:24:21.032Z,0.53
2023-03-11T05:26:48.709Z,0.57
2023-03-11T05:29:16.362Z,0.48
2023-03-11T05:31:43.954Z,0.47
2023-03-11T05:34:12.824Z,0.43
2023-03-11T05:36:40.501Z,0.40
2023-03-11T05:39:08.134Z,0.37
2023-03-11T05:41:35.906Z,0.43
2023-03-11T05:44:03.537Z,0.40
2023-03-11T05:46:32.203Z,0.32
2023-03-11T05:49:00.488Z,0.37
2023-03-11T05:51:29.441Z,0.27
2023-03-11T05:53:57.110Z,0.29
2023-03-11T05:56:24.663Z,0.26
2023-03-11T05:58:52.208Z,0.30
2023-03-11T06:01:20.760Z,0.23
2023-03-11T06:03:48.429Z,0.17
2023-03-11T06:06:17.672Z,0.25
2023-03-11T06:08:49.800Z,0.23
2023-03-11T06:11:18.259Z,0.20
2023-03-11T06:13:45.802Z,0.34
2023-03-11T06:16:13.712Z,0.38
2023-03-11T06:18:41.287Z,0.55
2023-03-11T06:21:09.424Z,0.62
2023-03-11T06:23:37.131Z,0.62
2023-03-11T06:26:06.743Z,0.64
2023-03-11T06:28:35.184Z,0.62
2023-03-11T06:31:09.446Z,0.92
2023-03-11T06:33:37.078Z,0.89
2023-03-11T06:36:06.184Z,0.90
2023-03-11T06:38:37.298Z,0.85
2023-03-11T06:41:07.304Z,0.84
2023-03-11T06:43:35.837Z,0.91
2023-03-11T06:46:09.400Z,0.80
2023-03-11T06:48:37.010Z,0.89
2023-03-11T06:51:04.985Z,0.87
2023-03-11T06:53:32.779Z,0.94
2023-03-11T06:56:02.003Z,0.95
2023-03-11T06:58:31.503Z,0.95
2023-03-11T07:01:02.627Z,0.94
2023-03-11T07:03:30.262Z,1.16
2023-03-11T07:05:58.414Z,0.95
2023-03-11T07:08:26.796Z,0.93
2023-03-11T07:11:01.820Z,1.11
2023-03-11T07:13:30.789Z,0.90
2023-03-11T07:16:02.379Z,0.94
2023-03-11T07:18:30.043Z,1.02
2023-03-11T07:20:57.877Z,1.05
2023-03-11T07:23:25.463Z,1.14
2023-03-11T07:25:55.377Z,1.29
2023-03-11T07:28:23.196Z,1.23
2023-03-11T07:30:52.460Z,1.30
2023-03-11T07:33:20.818Z,1.25
2023-03-11T07:35:49.313Z,1.29
2023-03-11T07:38:17.989Z,1.58
2023-03-11T07:40:45.699Z,1.55
2023-03-11T07:43:13.330Z,1.56
2023-03-11T07:45:40.927Z,1.72
2023-03-11T07:48:09.867Z,1.78
2023-03-11T07:50:37.456Z,1.89
2023-03-11T07:53:04.977Z,1.99
2023-03-11T07:55:32.589Z,2.10
2023-03-11T07:58:00.215Z,2.08
2023-03-11T08:00:27.773Z,2.77
2023-03-11T08:02:55.297Z,2.71
2023-03-11T08:05:24.270Z,2.67
2023-03-11T08:07:51.844Z,2.69
2023-03-11T08:10:19.430Z,2.48
2023-03-11T08:12:46.971Z,2.53
2023-03-11T08:15:14.525Z,2.56
2023-03-11T08:17:42.045Z,2.64
2023-03-11T08:20:11.604Z,2.61
2023-03-11T08:22:55.624Z,2.79
2023-03-11T08:25:25.134Z,2.89
2023-03-11T08:27:52.733Z,3.09
2023-03-11T08:30:21.512Z,3.04
2023-03-11T08:32:49.242Z,3.18
2023-03-11T08:35:17.334Z,2.86
2023-03-11T08:37:46.311Z,3.10
2023-03-11T08:40:14.698Z,3.29
2023-03-11T08:42:42.273Z,3.62
2023-03-11T08:45:10.736Z,3.43
2023-03-11T08:47:39.165Z,3.38
2023-03-11T08:50:08.754Z,3.65
2023-03-11T08:52:36.428Z,3.29
2023-03-11T08:55:06.482Z,3.21
2023-03-11T08:57:34.218Z,3.00
2023-03-11T09:00:01.769Z,2.83
2023-03-11T09:02:29.313Z,3.00
2023-03-11T09:04:56.883Z,3.22
2023-03-11T09:07:24.400Z,3.26
2023-03-11T09:09:52.018Z,3.37
2023-03-11T09:12:21.112Z,3.61
2023-03-11T09:14:49.066Z,3.97
2023-03-11T09:17:17.216Z,3.69
2023-03-11T09:19:44.745Z,3.50
2023-03-11T09:22:12.777Z,3.21
2023-03-11T09:24:40.545Z,3.45
2023-03-11T09:27:08.125Z,3.22
2023-03-11T09:29:37.030Z,3.04
2023-03-11T09:32:04.999Z,3.26
2023-03-11T09:34:32.603Z,3.09
2023-03-11T09:37:01.924Z,3.23
2023-03-11T09:39:29.482Z,3.54
2023-03-11T09:41:59.401Z,3.74
2023-03-11T09:44:33.858Z,3.78
2023-03-11T09:47:15.598Z,3.53
2023-03-11T09:50:05.906Z,3.28
2023-03-11T09:52:39.124Z,3.12
2023-03-11T09:55:21.166Z,2.99
2023-03-11T09:57:49.333Z,2.81
2023-03-11T10:00:20.084Z,3.48
2023-03-11T10:02:50.160Z,3.86
2023-03-11T10:05:21.927Z,4.38
2023-03-11T10:07:53.947Z,4.24
2023-03-11T10:10:22.017Z,4.15
2023-03-11T10:12:53.920Z,4.03
2023-03-11T10:15:25.862Z,3.94
2023-03-11T10:18:06.516Z,3.99
2023-03-11T10:20:39.990Z,3.81
2023-03-11T10:23:16.809Z,3.75
2023-03-11T10:25:51.229Z,3.95
2023-03-11T10:28:20.426Z,3.67
2023-03-11T10:30:49.410Z,3.78
2023-03-11T10:33:23.030Z,3.67
2023-03-11T10:35:53.341Z,3.82
2023-03-11T10:38:23.300Z,3.80
2023-03-11T10:40:52.611Z,3.75
2023-03-11T10:43:22.965Z,3.71
2023-03-11T10:45:51.105Z,3.57
2023-03-11T10:48:20.994Z,3.71
2023-03-11T10:50:52.066Z,3.83
2023-03-11T10:53:20.977Z,3.87
2023-03-11T10:55:50.266Z,3.73
2023-03-11T10:58:20.283Z,3.59
2023-03-11T11:00:48.007Z,3.64
2023-03-11T11:03:23.413Z,3.58
2023-03-11T11:06:02.095Z,3.79
2023-03-11T11:08:30.048Z,3.75
2023-03-11T11:10:59.572Z,3.91
2023-03-11T11:13:30.194Z,3.82
2023-03-11T11:16:03.457Z,3.70
2023-03-11T11:18:34.995Z,3.71
2023-03-11T11:21:06.989Z,3.61
2023-03-11T11:23:38.617Z,3.49
2023-03-11T11:26:07.753Z,3.66
2023-03-11T11:28:36.002Z,3.41
2023-03-11T11:31:05.281Z,3.86
2023-03-11T11:33:36.612Z,3.61
2023-03-11T11:36:06.074Z,3.82
2023-03-11T11:38:34.667Z,3.76
2023-03-11T11:41:04.796Z,3.73
2023-03-11T11:43:47.791Z,3.86
2023-03-11T11:46:21.407Z,4.09
2023-03-11T11:48:54.252Z,3.94
2023-03-11T11:51:23.141Z,4.02
2023-03-11T11:53:53.515Z,4.11
2023-03-11T11:56:21.080Z,4.03
2023-03-11T11:58:48.735Z,4.18
2023-03-11T12:01:17.960Z,4.41
2023-03-11T12:04:01.233Z,4.14
2023-03-11T12:06:32.642Z,4.21
2023-03-11T12:09:08.432Z,4.29
2023-03-11T12:11:41.992Z,4.34
2023-03-11T12:14:14.262Z,4.11
2023-03-11T12:16:44.020Z,4.16
2023-03-11T12:19:20.996Z,4.16
2023-03-11T12:22:01.618Z,4.22
2023-03-11T12:24:42.952Z,4.16
2023-03-11T12:27:19.683Z,4.33
2023-03-11T12:29:49.340Z,4.38
2023-03-11T12:32:23.000Z,4.47
2023-03-11T12:34:52.072Z,4.40
2023-03-11T12:37:20.765Z,4.63
2023-03-11T12:39:48.394Z,4.50
2023-03-11T12:42:17.915Z,4.52
2023-03-11T12:44:46.884Z,4.89
2023-03-11T12:47:28.814Z,4.51
2023-03-11T12:50:36.927Z,4.53
2023-03-11T12:53:04.905Z,4.59
2023-03-11T12:55:36.871Z,4.73
2023-03-11T12:58:24.285Z,4.53
2023-03-11T13:01:04.707Z,4.73
2023-03-11T13:03:37.368Z,4.78
2023-03-11T13:06:20.875Z,4.54
2023-03-11T13:08:50.400Z,4.41
2023-03-11T13:11:37.633Z,4.47
2023-03-11T13:14:33.115Z,4.47
2023-03-11T13:17:25.962Z,4.38
2023-03-11T13:19:55.574Z,4.54
2023-03-11T13:22:44.307Z,4.65
2023-03-11T13:25:31.366Z,4.61
2023-03-11T13:28:06.129Z,4.64
2023-03-11T13:30:35.727Z,4.67
2023-03-11T13:33:19.365Z,4.68
2023-03-11T13:35:59.988Z,4.75
2023-03-11T13:39:15.000Z,4.78
2023-03-11T13:41:44.880Z,4.73
2023-03-11T13:44:15.989Z,4.79
2023-03-11T13:46:49.547Z,4.76
2023-03-11T13:49:26.225Z,4.90
2023-03-11T13:51:56.834Z,5.16
2023-03-11T13:54:47.749Z,5.00
2023-03-11T13:57:33.440Z,5.05
2023-03-11T14:00:15.888Z,4.73
2023-03-11T14:02:47.069Z,4.92
2023-03-11T14:05:17.254Z,4.76
2023-03-11T14:07:44.902Z,4.66
2023-03-11T14:10:30.291Z,4.78
2023-03-11T14:13:14.652Z,4.77
2023-03-11T14:15:47.979Z,4.62
2023-03-11T14:18:33.969Z,4.86
2023-03-11T14:21:02.446Z,4.98
2023-03-11T14:23:32.425Z,4.71
2023-03-11T14:26:07.998Z,4.67
2023-03-11T14:28:39.679Z,4.52
2023-03-11T14:31:07.705Z,4.68
2023-03-11T14:33:35.265Z,4.78
2023-03-11T14:36:05.916Z,4.83
2023-03-11T14:38:33.979Z,4.78
2023-03-11T14:41:03.905Z,4.80
2023-03-11T14:43:34.926Z,4.65
2023-03-11T14:46:03.478Z,4.81
2023-03-11T14:48:33.246Z,4.84
2023-03-11T14:51:03.943Z,4.83
2023-03-11T14:53:34.677Z,4.81
2023-03-11T14:56:04.344Z,5.08
2023-03-11T14:58:35.889Z,5.05
2023-03-11T15:01:05.660Z,5.10
2023-03-11T15:03:35.075Z,5.06
2023-03-11T15:06:05.331Z,4.97
2023-03-11T15:08:35.551Z,4.96
2023-03-11T15:11:05.334Z,5.02
2023-03-11T15:13:34.715Z,5.07
2023-03-11T15:16:03.854Z,4.99
2023-03-11T15:18:33.556Z,5.08
2023-03-11T15:21:07.021Z,5.02
2023-03-11T15:23:35.882Z,5.05
2023-03-11T15:26:06.883Z,5.04
2023-03-11T15:28:44.368Z,5.18
2023-03-11T15:31:25.720Z,4.68
2023-03-11T15:33:53.260Z,4.83
2023-03-11T15:36:31.454Z,4.54
2023-03-11T15:39:13.569Z,4.52
2023-03-11T15:41:41.664Z,4.51
2023-03-11T15:44:23.773Z,4.48
2023-03-11T15:46:51.423Z,4.36
2023-03-11T15:49:18.967Z,4.33
2023-03-11T15:51:46.517Z,4.30
2023-03-11T15:54:14.078Z,4.31
2023-03-11T15:56:42.437Z,4.38
2023-03-11T15:59:14.282Z,4.26
2023-03-11T16:01:43.481Z,4.28
2023-03-11T16:04:14.323Z,4.18
2023-03-11T16:06:42.554Z,4.18
2023-03-11T16:09:10.846Z,4.07
2023-03-11T16:11:38.834Z,4.09
2023-03-11T16:14:06.801Z,4.05
2023-03-11T16:16:34.445Z,4.00
2023-03-11T16:19:03.420Z,3.80
2023-03-11T16:21:34.628Z,3.90
2023-03-11T16:24:02.286Z,3.89
2023-03-11T16:26:30.905Z,3.88
2023-03-11T16:29:06.187Z,3.80
2023-03-11T16:31:40.377Z,3.79
2023-03-11T16:34:09.294Z,3.59
2023-03-11T16:36:36.919Z,3.73
2023-03-11T16:39:04.658Z,3.46
